sensor_id;sensor_type;location;lat;lon;timestamp;P1;durP1;ratioP1;P2;durP2;ratioP2
18702;SDS011;9481;48.796;9.210;2022-11-20T00:01:09;4.90;;;2.80;;
18702;SDS011;9481;48.796;9.210;2022-11-20T00:03:43;3.10;;;2.57;;
18702;SDS011;9481;48.796;9.210;2022-11-20T00:06:12;3.67;;;2.40;;
18702;SDS011;9481;48.796;9.210;2022-11-20T00:08:41;2.80;;;2.60;;
18702;SDS011;9481;48.796;9.210;2022-11-20T00:11:08;3.90;;;2.77;;
18702;SDS011;9481;48.796;9.210;2022-11-20T00:13:43;4.50;;;2.70;;
18702;SDS011;9481;48.796;9.210;2022-11-20T00:16:11;3.17;;;2.37;;
18702;SDS011;9481;48.796;9.210;2022-11-20T00:18:40;2.80;;;2.40;;
18702;SDS011;9481;48.796;9.210;2022-11-20T00:21:09;4.17;;;2.23;;
18702;SDS011;9481;48.796;9.210;2022-11-20T00:23:38;4.97;;;2.57;;
18702;SDS011;9481;48.796;9.210;2022-11-20T00:26:05;2.43;;;2.17;;
18702;SDS011;9481;48.796;9.210;2022-11-20T00:28:33;3.70;;;2.37;;
18702;SDS011;9481;48.796;9.210;2022-11-20T00:33:33;2.40;;;2.20;;
18702;SDS011;9481;48.796;9.210;2022-11-20T00:36:03;3.43;;;1.93;;
18702;SDS011;9481;48.796;9.210;2022-11-20T00:38:31;2.57;;;2.23;;
18702;SDS011;9481;48.796;9.210;2022-11-20T00:40:58;5.63;;;2.40;;
18702;SDS011;9481;48.796;9.210;2022-11-20T00:43:26;2.63;;;2.13;;
18702;SDS011;9481;48.796;9.210;2022-11-20T00:45:56;3.33;;;2.53;;
18702;SDS011;9481;48.796;9.210;2022-11-20T00:48:30;2.63;;;2.20;;
18702;SDS011;9481;48.796;9.210;2022-11-20T00:50:57;3.83;;;2.40;;
18702;SDS011;9481;48.796;9.210;2022-11-20T00:53:23;4.20;;;2.60;;
18702;SDS011;9481;48.796;9.210;2022-11-20T00:55:55;3.30;;;2.10;;
18702;SDS011;9481;48.796;9.210;2022-11-20T00:58:36;1.87;;;1.77;;
18702;SDS011;9481;48.796;9.210;2022-11-20T01:01:05;2.17;;;1.97;;
18702;SDS011;9481;48.796;9.210;2022-11-20T01:03:34;2.83;;;2.30;;
18702;SDS011;9481;48.796;9.210;2022-11-20T01:06:03;3.00;;;2.07;;
18702;SDS011;9481;48.796;9.210;2022-11-20T01:08:32;2.47;;;2.10;;
18702;SDS011;9481;48.796;9.210;2022-11-20T01:11:00;3.93;;;1.90;;
18702;SDS011;9481;48.796;9.210;2022-11-20T01:13:32;4.60;;;1.83;;
18702;SDS011;9481;48.796;9.210;2022-11-20T01:16:04;3.47;;;2.30;;
18702;SDS011;9481;48.796;9.210;2022-11-20T01:18:36;4.73;;;2.17;;
18702;SDS011;9481;48.796;9.210;2022-11-20T01:21:07;5.50;;;1.70;;
18702;SDS011;9481;48.796;9.210;2022-11-20T01:23:40;2.90;;;1.93;;
18702;SDS011;9481;48.796;9.210;2022-11-20T01:26:08;3.97;;;2.00;;
18702;SDS011;9481;48.796;9.210;2022-11-20T01:28:38;2.27;;;1.80;;
18702;SDS011;9481;48.796;9.210;2022-11-20T01:33:37;1.70;;;1.60;;
18702;SDS011;9481;48.796;9.210;2022-11-20T01:36:04;2.17;;;1.70;;
18702;SDS011;9481;48.796;9.210;2022-11-20T01:38:31;2.20;;;1.80;;
18702;SDS011;9481;48.796;9.210;2022-11-20T01:40:57;3.50;;;1.80;;
18702;SDS011;9481;48.796;9.210;2022-11-20T01:43:24;2.03;;;1.83;;
18702;SDS011;9481;48.796;9.210;2022-11-20T01:53:59;2.83;;;1.63;;
18702;SDS011;9481;48.796;9.210;2022-11-20T01:56:30;2.40;;;1.60;;
18702;SDS011;9481;48.796;9.210;2022-11-20T01:59:02;2.20;;;1.67;;
18702;SDS011;9481;48.796;9.210;2022-11-20T02:01:31;4.10;;;2.93;;
18702;SDS011;9481;48.796;9.210;2022-11-20T02:03:58;3.73;;;2.30;;
18702;SDS011;9481;48.796;9.210;2022-11-20T02:06:28;2.20;;;1.90;;
18702;SDS011;9481;48.796;9.210;2022-11-20T02:08:59;2.00;;;1.70;;
18702;SDS011;9481;48.796;9.210;2022-11-20T02:11:25;2.67;;;1.80;;
18702;SDS011;9481;48.796;9.210;2022-11-20T02:13:50;3.43;;;1.77;;
18702;SDS011;9481;48.796;9.210;2022-11-20T02:19:23;3.00;;;1.80;;
18702;SDS011;9481;48.796;9.210;2022-11-20T02:24:33;3.13;;;1.87;;
18702;SDS011;9481;48.796;9.210;2022-11-20T02:27:03;2.40;;;1.67;;
18702;SDS011;9481;48.796;9.210;2022-11-20T02:29:50;3.23;;;1.80;;
18702;SDS011;9481;48.796;9.210;2022-11-20T02:32:24;2.10;;;1.50;;
18702;SDS011;9481;48.796;9.210;2022-11-20T02:34:58;2.40;;;1.70;;
18702;SDS011;9481;48.796;9.210;2022-11-20T02:37:32;2.10;;;1.70;;
18702;SDS011;9481;48.796;9.210;2022-11-20T02:40:02;2.10;;;1.90;;
18702;SDS011;9481;48.796;9.210;2022-11-20T02:42:28;2.77;;;2.13;;
18702;SDS011;9481;48.796;9.210;2022-11-20T02:44:54;2.27;;;1.73;;
18702;SDS011;9481;48.796;9.210;2022-11-20T02:47:20;2.00;;;1.80;;
18702;SDS011;9481;48.796;9.210;2022-11-20T02:49:45;2.27;;;2.07;;
18702;SDS011;9481;48.796;9.210;2022-11-20T02:52:11;2.03;;;1.83;;
18702;SDS011;9481;48.796;9.210;2022-11-20T02:54:37;2.57;;;1.83;;
18702;SDS011;9481;48.796;9.210;2022-11-20T02:57:03;2.63;;;1.80;;
18702;SDS011;9481;48.796;9.210;2022-11-20T02:59:28;2.17;;;1.87;;
18702;SDS011;9481;48.796;9.210;2022-11-20T03:01:54;4.80;;;2.27;;
18702;SDS011;9481;48.796;9.210;2022-11-20T03:04:19;2.93;;;2.03;;
18702;SDS011;9481;48.796;9.210;2022-11-20T03:06:45;3.57;;;2.20;;
18702;SDS011;9481;48.796;9.210;2022-11-20T03:09:11;3.70;;;2.27;;
18702;SDS011;9481;48.796;9.210;2022-11-20T03:11:37;2.47;;;2.00;;
18702;SDS011;9481;48.796;9.210;2022-11-20T03:14:03;2.70;;;2.30;;
18702;SDS011;9481;48.796;9.210;2022-11-20T03:16:30;2.30;;;2.10;;
18702;SDS011;9481;48.796;9.210;2022-11-20T03:18:57;4.30;;;2.07;;
18702;SDS011;9481;48.796;9.210;2022-11-20T03:21:23;2.67;;;2.43;;
18702;SDS011;9481;48.796;9.210;2022-11-20T03:23:49;3.00;;;2.10;;
18702;SDS011;9481;48.796;9.210;2022-11-20T03:26:16;3.30;;;1.73;;
18702;SDS011;9481;48.796;9.210;2022-11-20T03:28:48;2.97;;;2.10;;
18702;SDS011;9481;48.796;9.210;2022-11-20T03:31:18;2.53;;;2.27;;
18702;SDS011;9481;48.796;9.210;2022-11-20T03:33:47;3.00;;;2.30;;
18702;SDS011;9481;48.796;9.210;2022-11-20T03:36:14;3.43;;;2.33;;
18702;SDS011;9481;48.796;9.210;2022-11-20T03:38:42;3.60;;;2.10;;
18702;SDS011;9481;48.796;9.210;2022-11-20T03:41:09;2.43;;;2.13;;
18702;SDS011;9481;48.796;9.210;2022-11-20T03:43:39;2.37;;;2.13;;
18702;SDS011;9481;48.796;9.210;2022-11-20T03:46:05;3.07;;;2.27;;
18702;SDS011;9481;48.796;9.210;2022-11-20T03:48:32;2.47;;;2.10;;
18702;SDS011;9481;48.796;9.210;2022-11-20T03:51:12;4.10;;;2.13;;
18702;SDS011;9481;48.796;9.210;2022-11-20T03:53:50;4.67;;;2.53;;
18702;SDS011;9481;48.796;9.210;2022-11-20T03:56:19;4.37;;;2.30;;
18702;SDS011;9481;48.796;9.210;2022-11-20T03:58:48;3.53;;;2.17;;
18702;SDS011;9481;48.796;9.210;2022-11-20T04:01:34;6.17;;;2.20;;
18702;SDS011;9481;48.796;9.210;2022-11-20T04:04:02;4.20;;;2.20;;
18702;SDS011;9481;48.796;9.210;2022-11-20T04:06:30;2.80;;;2.00;;
18702;SDS011;9481;48.796;9.210;2022-11-20T04:09:02;2.40;;;2.10;;
18702;SDS011;9481;48.796;9.210;2022-11-20T04:11:30;2.43;;;2.00;;
18702;SDS011;9481;48.796;9.210;2022-11-20T04:13:59;4.70;;;2.10;;
18702;SDS011;9481;48.796;9.210;2022-11-20T04:16:32;3.53;;;2.10;;
18702;SDS011;9481;48.796;9.210;2022-11-20T04:19:00;2.73;;;2.00;;
18702;SDS011;9481;48.796;9.210;2022-11-20T04:21:29;2.60;;;2.10;;
18702;SDS011;9481;48.796;9.210;2022-11-20T04:23:55;3.93;;;2.23;;
18702;SDS011;9481;48.796;9.210;2022-11-20T04:26:22;2.83;;;1.97;;
18702;SDS011;9481;48.796;9.210;2022-11-20T04:28:51;3.50;;;2.20;;
18702;SDS011;9481;48.796;9.210;2022-11-20T04:31:22;2.20;;;1.97;;
18702;SDS011;9481;48.796;9.210;2022-11-20T04:33:51;3.17;;;2.20;;
18702;SDS011;9481;48.796;9.210;2022-11-20T04:36:21;2.93;;;2.30;;
18702;SDS011;9481;48.796;9.210;2022-11-20T04:38:50;2.97;;;2.10;;
18702;SDS011;9481;48.796;9.210;2022-11-20T04:41:19;2.83;;;2.00;;
18702;SDS011;9481;48.796;9.210;2022-11-20T04:43:50;2.33;;;2.10;;
18702;SDS011;9481;48.796;9.210;2022-11-20T04:46:24;2.20;;;1.83;;
18702;SDS011;9481;48.796;9.210;2022-11-20T04:48:50;3.37;;;2.13;;
18702;SDS011;9481;48.796;9.210;2022-11-20T04:51:16;3.53;;;2.17;;
18702;SDS011;9481;48.796;9.210;2022-11-20T04:53:42;2.63;;;2.20;;
18702;SDS011;9481;48.796;9.210;2022-11-20T04:56:08;3.80;;;1.93;;
18702;SDS011;9481;48.796;9.210;2022-11-20T04:58:37;3.20;;;2.20;;
18702;SDS011;9481;48.796;9.210;2022-11-20T05:01:09;2.70;;;2.20;;
18702;SDS011;9481;48.796;9.210;2022-11-20T05:03:37;3.20;;;2.30;;
18702;SDS011;9481;48.796;9.210;2022-11-20T05:06:09;4.00;;;2.37;;
18702;SDS011;9481;48.796;9.210;2022-11-20T05:08:40;3.70;;;2.30;;
18702;SDS011;9481;48.796;9.210;2022-11-20T05:11:07;3.23;;;2.03;;
18702;SDS011;9481;48.796;9.210;2022-11-20T05:13:36;3.50;;;2.10;;
18702;SDS011;9481;48.796;9.210;2022-11-20T05:16:10;3.37;;;1.90;;
18702;SDS011;9481;48.796;9.210;2022-11-20T05:18:47;3.23;;;2.17;;
18702;SDS011;9481;48.796;9.210;2022-11-20T05:21:13;2.17;;;1.97;;
18702;SDS011;9481;48.796;9.210;2022-11-20T05:23:40;4.00;;;2.30;;
18702;SDS011;9481;48.796;9.210;2022-11-20T05:26:07;2.20;;;1.63;;
18702;SDS011;9481;48.796;9.210;2022-11-20T05:28:41;2.90;;;2.00;;
18702;SDS011;9481;48.796;9.210;2022-11-20T05:31:17;2.37;;;2.00;;
18702;SDS011;9481;48.796;9.210;2022-11-20T05:33:46;2.87;;;2.00;;
18702;SDS011;9481;48.796;9.210;2022-11-20T05:36:12;3.23;;;2.07;;
18702;SDS011;9481;48.796;9.210;2022-11-20T05:38:40;3.33;;;1.83;;
18702;SDS011;9481;48.796;9.210;2022-11-20T05:41:07;2.63;;;1.77;;
18702;SDS011;9481;48.796;9.210;2022-11-20T05:43:39;2.10;;;1.70;;
18702;SDS011;9481;48.796;9.210;2022-11-20T05:46:08;3.97;;;1.93;;
18702;SDS011;9481;48.796;9.210;2022-11-20T05:48:36;4.50;;;2.00;;
18702;SDS011;9481;48.796;9.210;2022-11-20T05:51:04;1.70;;;1.60;;
18702;SDS011;9481;48.796;9.210;2022-11-20T05:53:32;2.60;;;1.80;;
18702;SDS011;9481;48.796;9.210;2022-11-20T05:56:04;3.33;;;1.70;;
18702;SDS011;9481;48.796;9.210;2022-11-20T05:58:34;2.30;;;1.97;;
18702;SDS011;9481;48.796;9.210;2022-11-20T06:01:12;2.57;;;1.97;;
18702;SDS011;9481;48.796;9.210;2022-11-20T06:03:44;3.17;;;1.77;;
18702;SDS011;9481;48.796;9.210;2022-11-20T06:06:12;1.97;;;1.67;;
18702;SDS011;9481;48.796;9.210;2022-11-20T06:08:40;2.47;;;1.60;;
18702;SDS011;9481;48.796;9.210;2022-11-20T06:11:09;3.63;;;2.03;;
18702;SDS011;9481;48.796;9.210;2022-11-20T06:13:37;1.73;;;1.63;;
18702;SDS011;9481;48.796;9.210;2022-11-20T06:16:03;2.47;;;1.63;;
18702;SDS011;9481;48.796;9.210;2022-11-20T06:18:29;2.67;;;1.50;;
18702;SDS011;9481;48.796;9.210;2022-11-20T06:20:59;2.27;;;1.80;;
18702;SDS011;9481;48.796;9.210;2022-11-20T06:23:34;2.10;;;1.73;;
18702;SDS011;9481;48.796;9.210;2022-11-20T06:26:02;1.97;;;1.77;;
18702;SDS011;9481;48.796;9.210;2022-11-20T06:28:33;2.90;;;1.80;;
18702;SDS011;9481;48.796;9.210;2022-11-20T06:30:59;2.47;;;1.93;;
18702;SDS011;9481;48.796;9.210;2022-11-20T06:33:25;2.10;;;1.77;;
18702;SDS011;9481;48.796;9.210;2022-11-20T06:35:51;1.80;;;1.60;;
18702;SDS011;9481;48.796;9.210;2022-11-20T06:38:17;1.57;;;1.47;;
18702;SDS011;9481;48.796;9.210;2022-11-20T06:40:43;4.13;;;1.97;;
18702;SDS011;9481;48.796;9.210;2022-11-20T06:43:09;3.93;;;2.07;;
18702;SDS011;9481;48.796;9.210;2022-11-20T06:45:35;3.40;;;1.97;;
18702;SDS011;9481;48.796;9.210;2022-11-20T06:48:01;2.63;;;1.70;;
18702;SDS011;9481;48.796;9.210;2022-11-20T06:50:28;3.07;;;2.03;;
18702;SDS011;9481;48.796;9.210;2022-11-20T06:52:54;2.90;;;1.70;;
18702;SDS011;9481;48.796;9.210;2022-11-20T06:55:20;2.10;;;1.90;;
18702;SDS011;9481;48.796;9.210;2022-11-20T06:57:46;2.03;;;1.60;;
18702;SDS011;9481;48.796;9.210;2022-11-20T07:00:11;3.20;;;2.17;;
18702;SDS011;9481;48.796;9.210;2022-11-20T07:02:38;2.30;;;1.87;;
18702;SDS011;9481;48.796;9.210;2022-11-20T07:05:04;2.47;;;1.90;;
18702;SDS011;9481;48.796;9.210;2022-11-20T07:07:30;2.47;;;1.93;;
18702;SDS011;9481;48.796;9.210;2022-11-20T07:09:55;3.37;;;1.80;;
18702;SDS011;9481;48.796;9.210;2022-11-20T07:12:21;2.20;;;1.80;;
18702;SDS011;9481;48.796;9.210;2022-11-20T07:14:47;2.87;;;1.73;;
18702;SDS011;9481;48.796;9.210;2022-11-20T07:17:12;3.47;;;2.00;;
18702;SDS011;9481;48.796;9.210;2022-11-20T07:19:38;2.30;;;1.77;;
18702;SDS011;9481;48.796;9.210;2022-11-20T07:22:04;3.07;;;1.93;;
18702;SDS011;9481;48.796;9.210;2022-11-20T07:24:29;2.33;;;2.00;;
18702;SDS011;9481;48.796;9.210;2022-11-20T07:26:55;4.87;;;2.17;;
18702;SDS011;9481;48.796;9.210;2022-11-20T07:29:21;2.57;;;1.90;;
18702;SDS011;9481;48.796;9.210;2022-11-20T07:31:46;2.20;;;1.87;;
18702;SDS011;9481;48.796;9.210;2022-11-20T07:34:12;2.83;;;1.77;;
18702;SDS011;9481;48.796;9.210;2022-11-20T07:36:38;2.83;;;1.73;;
18702;SDS011;9481;48.796;9.210;2022-11-20T07:39:04;1.70;;;1.60;;
18702;SDS011;9481;48.796;9.210;2022-11-20T07:41:30;2.17;;;1.90;;
18702;SDS011;9481;48.796;9.210;2022-11-20T07:43:56;2.10;;;1.90;;
18702;SDS011;9481;48.796;9.210;2022-11-20T07:46:21;2.83;;;1.60;;
18702;SDS011;9481;48.796;9.210;2022-11-20T07:48:47;1.90;;;1.60;;
18702;SDS011;9481;48.796;9.210;2022-11-20T07:51:12;2.53;;;1.73;;
18702;SDS011;9481;48.796;9.210;2022-11-20T07:53:38;3.00;;;1.77;;
18702;SDS011;9481;48.796;9.210;2022-11-20T07:56:04;2.73;;;1.73;;
18702;SDS011;9481;48.796;9.210;2022-11-20T07:58:30;3.70;;;1.90;;
18702;SDS011;9481;48.796;9.210;2022-11-20T08:00:58;2.00;;;1.73;;
18702;SDS011;9481;48.796;9.210;2022-11-20T08:03:33;1.60;;;1.50;;
18702;SDS011;9481;48.796;9.210;2022-11-20T08:06:00;3.50;;;1.50;;
18702;SDS011;9481;48.796;9.210;2022-11-20T08:08:27;1.97;;;1.70;;
18702;SDS011;9481;48.796;9.210;2022-11-20T08:10:53;1.90;;;1.67;;
18702;SDS011;9481;48.796;9.210;2022-11-20T08:13:39;2.10;;;1.60;;
18702;SDS011;9481;48.796;9.210;2022-11-20T08:16:23;1.90;;;1.60;;
18702;SDS011;9481;48.796;9.210;2022-11-20T08:18:49;1.87;;;1.63;;
18702;SDS011;9481;48.796;9.210;2022-11-20T08:21:15;2.27;;;1.60;;
18702;SDS011;9481;48.796;9.210;2022-11-20T08:23:40;3.40;;;2.40;;
18702;SDS011;9481;48.796;9.210;2022-11-20T08:26:06;3.57;;;2.70;;
18702;SDS011;9481;48.796;9.210;2022-11-20T08:28:31;2.07;;;1.80;;
18702;SDS011;9481;48.796;9.210;2022-11-20T08:30:58;1.93;;;1.67;;
18702;SDS011;9481;48.796;9.210;2022-11-20T08:33:27;3.53;;;2.07;;
18702;SDS011;9481;48.796;9.210;2022-11-20T08:35:53;3.40;;;2.23;;
18702;SDS011;9481;48.796;9.210;2022-11-20T08:38:30;2.17;;;1.60;;
18702;SDS011;9481;48.796;9.210;2022-11-20T08:41:00;2.27;;;1.90;;
18702;SDS011;9481;48.796;9.210;2022-11-20T08:43:47;3.67;;;1.37;;
18702;SDS011;9481;48.796;9.210;2022-11-20T08:46:12;1.87;;;1.40;;
18702;SDS011;9481;48.796;9.210;2022-11-20T08:48:38;1.60;;;1.30;;
18702;SDS011;9481;48.796;9.210;2022-11-20T08:51:04;1.30;;;1.20;;
18702;SDS011;9481;48.796;9.210;2022-11-20T08:53:30;4.60;;;1.40;;
18702;SDS011;9481;48.796;9.210;2022-11-20T08:55:57;1.60;;;1.50;;
18702;SDS011;9481;48.796;9.210;2022-11-20T08:58:23;1.20;;;1.10;;
18702;SDS011;9481;48.796;9.210;2022-11-20T09:00:50;1.87;;;1.40;;
18702;SDS011;9481;48.796;9.210;2022-11-20T09:03:16;2.27;;;1.30;;
18702;SDS011;9481;48.796;9.210;2022-11-20T09:05:41;1.00;;;0.97;;
18702;SDS011;9481;48.796;9.210;2022-11-20T09:08:07;1.40;;;1.20;;
18702;SDS011;9481;48.796;9.210;2022-11-20T09:10:34;1.20;;;1.10;;
18702;SDS011;9481;48.796;9.210;2022-11-20T09:12:59;1.47;;;1.13;;
18702;SDS011;9481;48.796;9.210;2022-11-20T09:15:26;1.60;;;1.23;;
18702;SDS011;9481;48.796;9.210;2022-11-20T09:17:55;1.80;;;1.37;;
18702;SDS011;9481;48.796;9.210;2022-11-20T09:20:24;2.20;;;1.40;;
18702;SDS011;9481;48.796;9.210;2022-11-20T09:22:51;2.00;;;1.13;;
18702;SDS011;9481;48.796;9.210;2022-11-20T09:25:16;0.90;;;0.90;;
18702;SDS011;9481;48.796;9.210;2022-11-20T09:27:43;1.10;;;1.00;;
18702;SDS011;9481;48.796;9.210;2022-11-20T09:30:11;1.87;;;1.00;;
18702;SDS011;9481;48.796;9.210;2022-11-20T09:32:40;1.13;;;0.90;;
18702;SDS011;9481;48.796;9.210;2022-11-20T09:35:09;1.90;;;1.10;;
18702;SDS011;9481;48.796;9.210;2022-11-20T09:37:35;1.10;;;1.00;;
18702;SDS011;9481;48.796;9.210;2022-11-20T09:40:01;1.37;;;0.80;;
18702;SDS011;9481;48.796;9.210;2022-11-20T09:42:46;0.70;;;0.70;;
18702;SDS011;9481;48.796;9.210;2022-11-20T09:45:23;0.70;;;0.70;;
18702;SDS011;9481;48.796;9.210;2022-11-20T09:49:03;1.13;;;0.60;;
18702;SDS011;9481;48.796;9.210;2022-11-20T09:54:41;0.50;;;0.50;;
18702;SDS011;9481;48.796;9.210;2022-11-20T09:57:11;3.93;;;2.17;;
18702;SDS011;9481;48.796;9.210;2022-11-20T09:59:45;5.57;;;2.63;;
18702;SDS011;9481;48.796;9.210;2022-11-20T10:02:28;7.67;;;3.20;;
18702;SDS011;9481;48.796;9.210;2022-11-20T10:07:52;1.37;;;1.17;;
18702;SDS011;9481;48.796;9.210;2022-11-20T10:22:16;1.20;;;0.90;;
18702;SDS011;9481;48.796;9.210;2022-11-20T10:25:00;0.87;;;0.77;;
18702;SDS011;9481;48.796;9.210;2022-11-20T10:27:47;0.90;;;0.90;;
18702;SDS011;9481;48.796;9.210;2022-11-20T10:30:17;2.70;;;1.63;;
18702;SDS011;9481;48.796;9.210;2022-11-20T10:32:48;1.50;;;1.23;;
18702;SDS011;9481;48.796;9.210;2022-11-20T10:38:18;0.77;;;0.77;;
18702;SDS011;9481;48.796;9.210;2022-11-20T10:40:57;1.57;;;1.00;;
18702;SDS011;9481;48.796;9.210;2022-11-20T10:43:46;1.03;;;0.90;;
18702;SDS011;9481;48.796;9.210;2022-11-20T10:46:21;1.77;;;1.20;;
18702;SDS011;9481;48.796;9.210;2022-11-20T10:48:48;1.20;;;1.10;;
18702;SDS011;9481;48.796;9.210;2022-11-20T10:56:52;1.37;;;1.10;;
18702;SDS011;9481;48.796;9.210;2022-11-20T10:59:37;1.43;;;0.80;;
18702;SDS011;9481;48.796;9.210;2022-11-20T11:02:18;0.93;;;0.70;;
18702;SDS011;9481;48.796;9.210;2022-11-20T11:04:50;0.97;;;0.83;;
18702;SDS011;9481;48.796;9.210;2022-11-20T11:07:30;1.10;;;1.00;;
18702;SDS011;9481;48.796;9.210;2022-11-20T11:13:07;2.03;;;1.40;;
18702;SDS011;9481;48.796;9.210;2022-11-20T11:15:45;2.67;;;1.40;;
18702;SDS011;9481;48.796;9.210;2022-11-20T11:18:10;2.27;;;1.10;;
18702;SDS011;9481;48.796;9.210;2022-11-20T11:20:51;4.23;;;2.53;;
18702;SDS011;9481;48.796;9.210;2022-11-20T11:23:34;4.33;;;2.60;;
18702;SDS011;9481;48.796;9.210;2022-11-20T11:26:03;7.17;;;4.43;;
18702;SDS011;9481;48.796;9.210;2022-11-20T11:29:00;5.77;;;3.30;;
18702;SDS011;9481;48.796;9.210;2022-11-20T11:31:32;2.70;;;2.00;;
18702;SDS011;9481;48.796;9.210;2022-11-20T11:34:15;2.07;;;1.80;;
18702;SDS011;9481;48.796;9.210;2022-11-20T11:36:42;2.03;;;1.37;;
18702;SDS011;9481;48.796;9.210;2022-11-20T11:39:22;1.67;;;1.13;;
18702;SDS011;9481;48.796;9.210;2022-11-20T11:41:50;2.40;;;1.20;;
18702;SDS011;9481;48.796;9.210;2022-11-20T11:44:17;1.30;;;1.10;;
18702;SDS011;9481;48.796;9.210;2022-11-20T11:47:05;1.67;;;0.90;;
18702;SDS011;9481;48.796;9.210;2022-11-20T11:49:49;1.17;;;0.90;;
18702;SDS011;9481;48.796;9.210;2022-11-20T12:01:29;3.17;;;1.60;;
18702;SDS011;9481;48.796;9.210;2022-11-20T12:07:15;2.60;;;1.60;;
18702;SDS011;9481;48.796;9.210;2022-11-20T12:10:08;1.20;;;1.10;;
18702;SDS011;9481;48.796;9.210;2022-11-20T12:12:44;1.90;;;1.20;;
18702;SDS011;9481;48.796;9.210;2022-11-20T12:15:27;1.87;;;1.30;;
18702;SDS011;9481;48.796;9.210;2022-11-20T12:17:58;3.63;;;1.90;;
18702;SDS011;9481;48.796;9.210;2022-11-20T12:20:32;2.97;;;1.50;;
18702;SDS011;9481;48.796;9.210;2022-11-20T12:23:13;2.80;;;1.20;;
18702;SDS011;9481;48.796;9.210;2022-11-20T12:26:33;1.33;;;0.83;;
18702;SDS011;9481;48.796;9.210;2022-11-20T12:29:43;0.97;;;0.70;;
18702;SDS011;9481;48.796;9.210;2022-11-20T12:49:55;1.90;;;0.77;;
18702;SDS011;9481;48.796;9.210;2022-11-20T12:58:20;3.20;;;1.30;;
18702;SDS011;9481;48.796;9.210;2022-11-20T13:01:08;3.00;;;1.50;;
18702;SDS011;9481;48.796;9.210;2022-11-20T13:07:29;1.93;;;1.10;;
18702;SDS011;9481;48.796;9.210;2022-11-20T13:09:57;2.60;;;1.40;;
18702;SDS011;9481;48.796;9.210;2022-11-20T13:12:27;2.77;;;1.10;;
18702;SDS011;9481;48.796;9.210;2022-11-20T13:15:11;2.03;;;1.00;;
18702;SDS011;9481;48.796;9.210;2022-11-20T13:17:57;1.30;;;0.87;;
18702;SDS011;9481;48.796;9.210;2022-11-20T13:20:27;1.50;;;0.93;;
18702;SDS011;9481;48.796;9.210;2022-11-20T13:22:57;1.97;;;1.03;;
18702;SDS011;9481;48.796;9.210;2022-11-20T13:25:24;1.80;;;1.40;;
18702;SDS011;9481;48.796;9.210;2022-11-20T13:27:54;2.10;;;1.90;;
18702;SDS011;9481;48.796;9.210;2022-11-20T13:30:24;1.83;;;1.40;;
18702;SDS011;9481;48.796;9.210;2022-11-20T13:33:03;1.83;;;0.80;;
18702;SDS011;9481;48.796;9.210;2022-11-20T13:35:55;1.30;;;0.80;;
18702;SDS011;9481;48.796;9.210;2022-11-20T13:38:24;0.60;;;0.60;;
18702;SDS011;9481;48.796;9.210;2022-11-20T13:40:57;1.87;;;0.90;;
18702;SDS011;9481;48.796;9.210;2022-11-20T13:43:48;0.50;;;0.50;;
18702;SDS011;9481;48.796;9.210;2022-11-20T13:46:14;1.87;;;0.60;;
18702;SDS011;9481;48.796;9.210;2022-11-20T13:51:26;0.60;;;0.60;;
18702;SDS011;9481;48.796;9.210;2022-11-20T13:57:30;3.60;;;0.80;;
18702;SDS011;9481;48.796;9.210;2022-11-20T14:00:28;0.87;;;0.87;;
18702;SDS011;9481;48.796;9.210;2022-11-20T14:05:31;2.20;;;0.80;;
18702;SDS011;9481;48.796;9.210;2022-11-20T14:08:04;2.27;;;0.77;;
18702;SDS011;9481;48.796;9.210;2022-11-20T14:10:32;2.67;;;0.80;;
18702;SDS011;9481;48.796;9.210;2022-11-20T14:12:58;0.60;;;0.60;;
18702;SDS011;9481;48.796;9.210;2022-11-20T14:15:35;2.60;;;0.70;;
18702;SDS011;9481;48.796;9.210;2022-11-20T14:18:11;1.77;;;0.73;;
18702;SDS011;9481;48.796;9.210;2022-11-20T14:20:45;1.50;;;0.77;;
18702;SDS011;9481;48.796;9.210;2022-11-20T14:23:12;1.87;;;0.90;;
18702;SDS011;9481;48.796;9.210;2022-11-20T14:25:41;2.67;;;1.33;;
18702;SDS011;9481;48.796;9.210;2022-11-20T14:28:10;3.07;;;0.93;;
18702;SDS011;9481;48.796;9.210;2022-11-20T14:30:51;2.07;;;0.90;;
18702;SDS011;9481;48.796;9.210;2022-11-20T14:33:18;4.30;;;1.20;;
18702;SDS011;9481;48.796;9.210;2022-11-20T14:35:50;1.00;;;0.90;;
18702;SDS011;9481;48.796;9.210;2022-11-20T14:38:24;2.10;;;0.90;;
18702;SDS011;9481;48.796;9.210;2022-11-20T14:40:53;2.03;;;0.90;;
18702;SDS011;9481;48.796;9.210;2022-11-20T14:43:20;2.30;;;1.50;;
18702;SDS011;9481;48.796;9.210;2022-11-20T14:45:56;2.67;;;1.50;;
18702;SDS011;9481;48.796;9.210;2022-11-20T14:48:39;4.57;;;1.80;;
18702;SDS011;9481;48.796;9.210;2022-11-20T14:54:14;9.77;;;4.50;;
18702;SDS011;9481;48.796;9.210;2022-11-20T14:56:55;12.47;;;4.37;;
18702;SDS011;9481;48.796;9.210;2022-11-20T14:59:28;6.67;;;3.00;;
18702;SDS011;9481;48.796;9.210;2022-11-20T15:04:30;3.80;;;1.70;;
18702;SDS011;9481;48.796;9.210;2022-11-20T15:06:56;4.43;;;2.00;;
18702;SDS011;9481;48.796;9.210;2022-11-20T15:09:24;4.93;;;2.13;;
18702;SDS011;9481;48.796;9.210;2022-11-20T15:12:02;3.23;;;1.97;;
18702;SDS011;9481;48.796;9.210;2022-11-20T15:14:29;5.60;;;2.23;;
18702;SDS011;9481;48.796;9.210;2022-11-20T15:16:57;5.17;;;2.47;;
18702;SDS011;9481;48.796;9.210;2022-11-20T15:19:25;5.83;;;2.23;;
18702;SDS011;9481;48.796;9.210;2022-11-20T15:21:51;3.97;;;1.80;;
18702;SDS011;9481;48.796;9.210;2022-11-20T15:24:17;2.90;;;1.70;;
18702;SDS011;9481;48.796;9.210;2022-11-20T15:26:43;2.33;;;1.10;;
18702;SDS011;9481;48.796;9.210;2022-11-20T15:29:10;3.97;;;1.60;;
18702;SDS011;9481;48.796;9.210;2022-11-20T15:31:38;4.07;;;1.63;;
18702;SDS011;9481;48.796;9.210;2022-11-20T15:34:15;2.07;;;1.37;;
18702;SDS011;9481;48.796;9.210;2022-11-20T15:36:42;2.20;;;1.40;;
18702;SDS011;9481;48.796;9.210;2022-11-20T15:39:08;4.50;;;1.27;;
18702;SDS011;9481;48.796;9.210;2022-11-20T15:41:36;1.97;;;1.20;;
18702;SDS011;9481;48.796;9.210;2022-11-20T15:44:02;3.40;;;1.57;;
18702;SDS011;9481;48.796;9.210;2022-11-20T15:46:33;3.60;;;2.13;;
18702;SDS011;9481;48.796;9.210;2022-11-20T15:49:05;3.90;;;2.10;;
18702;SDS011;9481;48.796;9.210;2022-11-20T15:51:37;3.23;;;1.70;;
18702;SDS011;9481;48.796;9.210;2022-11-20T15:54:10;3.23;;;1.80;;
18702;SDS011;9481;48.796;9.210;2022-11-20T15:56:43;1.83;;;1.40;;
18702;SDS011;9481;48.796;9.210;2022-11-20T15:59:09;3.33;;;1.60;;
18702;SDS011;9481;48.796;9.210;2022-11-20T16:01:34;3.00;;;1.60;;
18702;SDS011;9481;48.796;9.210;2022-11-20T16:04:00;3.50;;;1.70;;
18702;SDS011;9481;48.796;9.210;2022-11-20T16:06:26;3.50;;;2.00;;
18702;SDS011;9481;48.796;9.210;2022-11-20T16:08:52;4.80;;;2.40;;
18702;SDS011;9481;48.796;9.210;2022-11-20T16:11:18;3.77;;;2.20;;
18702;SDS011;9481;48.796;9.210;2022-11-20T16:13:44;3.83;;;1.97;;
18702;SDS011;9481;48.796;9.210;2022-11-20T16:16:30;3.67;;;2.10;;
18702;SDS011;9481;48.796;9.210;2022-11-20T16:19:00;2.70;;;1.70;;
18702;SDS011;9481;48.796;9.210;2022-11-20T16:21:28;4.47;;;2.00;;
18702;SDS011;9481;48.796;9.210;2022-11-20T16:23:58;4.53;;;2.20;;
18702;SDS011;9481;48.796;9.210;2022-11-20T16:26:25;5.13;;;1.97;;
18702;SDS011;9481;48.796;9.210;2022-11-20T16:28:51;3.70;;;2.00;;
18702;SDS011;9481;48.796;9.210;2022-11-20T16:31:17;4.27;;;1.97;;
18702;SDS011;9481;48.796;9.210;2022-11-20T16:33:50;3.23;;;1.90;;
18702;SDS011;9481;48.796;9.210;2022-11-20T16:36:20;3.50;;;1.87;;
18702;SDS011;9481;48.796;9.210;2022-11-20T16:38:51;2.27;;;1.67;;
18702;SDS011;9481;48.796;9.210;2022-11-20T16:41:19;2.90;;;1.70;;
18702;SDS011;9481;48.796;9.210;2022-11-20T16:43:45;2.30;;;1.67;;
18702;SDS011;9481;48.796;9.210;2022-11-20T16:46:17;3.80;;;1.97;;
18702;SDS011;9481;48.796;9.210;2022-11-20T16:51:41;2.20;;;1.67;;
18702;SDS011;9481;48.796;9.210;2022-11-20T16:54:07;3.03;;;1.40;;
18702;SDS011;9481;48.796;9.210;2022-11-20T16:56:34;2.43;;;1.50;;
18702;SDS011;9481;48.796;9.210;2022-11-20T16:59:01;1.80;;;1.50;;
18702;SDS011;9481;48.796;9.210;2022-11-20T17:01:27;2.27;;;1.53;;
18702;SDS011;9481;48.796;9.210;2022-11-20T17:03:55;2.63;;;1.60;;
18702;SDS011;9481;48.796;9.210;2022-11-20T17:06:34;4.20;;;1.70;;